createdAt,value
2022-11-27T00:00:27.214Z,405.00
2022-11-27T00:00:57.245Z,405.00
2022-11-27T00:01:27.284Z,404.00
2022-11-27T00:01:57.261Z,405.00
2022-11-27T00:02:27.313Z,405.00
2022-11-27T00:02:57.557Z,406.00
2022-11-27T00:03:27.633Z,405.00
2022-11-27T00:03:57.547Z,404.00
2022-11-27T00:04:27.450Z,404.00
2022-11-27T00:04:57.551Z,405.00
2022-11-27T00:05:27.552Z,402.00
2022-11-27T00:05:57.586Z,403.00
2022-11-27T00:06:27.717Z,404.00
2022-11-27T00:06:57.712Z,403.00
2022-11-27T00:07:27.814Z,403.00
2022-11-27T00:07:57.887Z,404.00
2022-11-27T00:08:27.885Z,405.00
2022-11-27T00:08:58.017Z,408.00
2022-11-27T00:09:28.015Z,409.00
2022-11-27T00:09:58.028Z,410.00
2022-11-27T00:10:28.026Z,410.00
2022-11-27T00:10:58.152Z,407.00
2022-11-27T00:11:28.154Z,407.00
2022-11-27T00:11:58.274Z,407.00
2022-11-27T00:12:28.281Z,407.00
2022-11-27T00:12:58.320Z,408.00
2022-11-27T00:13:28.331Z,409.00
2022-11-27T00:13:58.357Z,410.00
2022-11-27T00:14:28.354Z,408.00
2022-11-27T00:14:58.349Z,408.00
2022-11-27T00:15:28.353Z,409.00
2022-11-27T00:15:58.435Z,408.00
2022-11-27T00:16:28.471Z,409.00
2022-11-27T00:16:58.419Z,408.00
2022-11-27T00:17:28.407Z,407.00
2022-11-27T00:17:58.531Z,408.00
2022-11-27T00:18:28.533Z,407.00
2022-11-27T00:18:58.566Z,406.00
2022-11-27T00:19:28.584Z,406.00
2022-11-27T00:19:58.632Z,406.00
2022-11-27T00:20:29.928Z,406.00
2022-11-27T00:20:58.724Z,409.00
2022-11-27T00:21:28.872Z,409.00
2022-11-27T00:21:58.860Z,408.00
2022-11-27T00:22:28.869Z,409.00
2022-11-27T00:22:58.870Z,409.00
2022-11-27T00:23:28.946Z,409.00
2022-11-27T00:23:58.942Z,407.00
2022-11-27T00:24:29.088Z,407.00
2022-11-27T00:24:59.187Z,409.00
2022-11-27T00:25:29.308Z,408.00
2022-11-27T00:25:59.305Z,408.00
2022-11-27T00:26:34.482Z,408.00
2022-11-27T00:26:59.521Z,409.00
2022-11-27T00:27:29.640Z,410.00
2022-11-27T00:27:59.713Z,410.00
2022-11-27T00:28:29.782Z,408.00
2022-11-27T00:28:59.932Z,409.00
2022-11-27T00:29:30.023Z,409.00
2022-11-27T00:30:00.145Z,408.00
2022-11-27T00:30:30.153Z,407.00
2022-11-27T00:31:00.253Z,411.00
2022-11-27T00:31:30.255Z,410.00
2022-11-27T00:32:00.235Z,414.00
2022-11-27T00:32:30.380Z,415.00
2022-11-27T00:33:00.533Z,414.00
2022-11-27T00:33:30.538Z,412.00
2022-11-27T00:34:00.524Z,413.00
2022-11-27T00:34:30.764Z,413.00
2022-11-27T00:35:00.685Z,412.00
2022-11-27T00:35:30.817Z,412.00
2022-11-27T00:36:00.780Z,411.00
2022-11-27T00:36:30.858Z,410.00
2022-11-27T00:37:00.888Z,411.00
2022-11-27T00:37:30.933Z,411.00
2022-11-27T00:38:00.989Z,410.00
2022-11-27T00:38:33.519Z,414.00
2022-11-27T00:39:01.023Z,413.00
2022-11-27T00:39:31.083Z,412.00
2022-11-27T00:40:01.070Z,411.00
2022-11-27T00:40:31.111Z,412.00
2022-11-27T00:41:01.101Z,413.00
2022-11-27T00:41:31.127Z,412.00
2022-11-27T00:42:01.128Z,411.00
2022-11-27T00:42:31.146Z,408.00
2022-11-27T00:43:01.169Z,408.00
2022-11-27T00:43:31.420Z,408.00
2022-11-27T00:44:01.234Z,408.00
2022-11-27T00:44:31.239Z,408.00
2022-11-27T00:45:01.256Z,408.00
2022-11-27T00:45:31.246Z,409.00
2022-11-27T00:46:01.330Z,411.00
2022-11-27T00:46:31.388Z,412.00
2022-11-27T00:47:01.577Z,413.00
2022-11-27T00:47:31.487Z,412.00
2022-11-27T00:48:01.480Z,412.00
2022-11-27T00:48:31.538Z,412.00
2022-11-27T00:49:01.555Z,413.00
2022-11-27T00:49:31.697Z,411.00
2022-11-27T00:50:01.614Z,411.00
2022-11-27T00:50:31.628Z,410.00
2022-11-27T00:51:01.614Z,408.00
2022-11-27T00:51:31.623Z,408.00
2022-11-27T00:52:01.635Z,408.00
2022-11-27T00:52:31.724Z,408.00
2022-11-27T00:53:01.711Z,405.00
2022-11-27T00:53:32.013Z,405.00
2022-11-27T00:54:01.932Z,405.00
2022-11-27T00:54:31.933Z,405.00
2022-11-27T00:55:01.935Z,406.00
2022-11-27T00:55:31.945Z,405.00
2022-11-27T00:56:01.992Z,403.00
2022-11-27T00:56:32.124Z,403.00
2022-11-27T00:57:02.110Z,403.00
2022-11-27T00:57:32.110Z,404.00
2022-11-27T00:58:02.126Z,403.00
2022-11-27T00:58:32.286Z,404.00
2022-11-27T00:59:02.162Z,406.00
2022-11-27T00:59:32.194Z,407.00
2022-11-27T01:00:02.232Z,407.00
2022-11-27T01:00:32.278Z,407.00
2022-11-27T01:01:02.277Z,409.00
2022-11-27T01:01:32.358Z,407.00
2022-11-27T01:02:02.468Z,406.00
2022-11-27T01:02:32.558Z,404.00
2022-11-27T01:03:02.702Z,404.00
2022-11-27T01:03:32.604Z,404.00
2022-11-27T01:04:02.616Z,403.00
2022-11-27T01:04:32.614Z,403.00
2022-11-27T01:05:02.677Z,403.00
2022-11-27T01:05:32.688Z,403.00
2022-11-27T01:06:02.709Z,403.00
2022-11-27T01:06:32.720Z,404.00
2022-11-27T01:07:02.720Z,405.00
2022-11-27T01:07:32.756Z,406.00
2022-11-27T01:08:02.763Z,405.00
2022-11-27T01:08:32.772Z,405.00
2022-11-27T01:09:02.775Z,404.00
2022-11-27T01:09:32.764Z,405.00
2022-11-27T01:10:02.790Z,406.00
2022-11-27T01:10:32.785Z,405.00
2022-11-27T01:11:02.794Z,405.00
2022-11-27T01:11:32.800Z,405.00
2022-11-27T01:12:02.824Z,406.00
2022-11-27T01:12:32.829Z,407.00
2022-11-27T01:13:02.832Z,407.00
2022-11-27T01:13:32.844Z,409.00
2022-11-27T01:14:02.934Z,409.00
2022-11-27T01:14:32.920Z,409.00
2022-11-27T01:15:02.904Z,409.00
2022-11-27T01:15:33.018Z,410.00
2022-11-27T01:16:03.187Z,411.00
2022-11-27T01:16:33.320Z,411.00
2022-11-27T01:17:03.224Z,408.00
2022-11-27T01:17:33.230Z,409.00
2022-11-27T01:18:03.233Z,408.00
2022-11-27T01:18:33.243Z,407.00
2022-11-27T01:19:03.288Z,409.00
2022-11-27T01:19:33.301Z,408.00
2022-11-27T01:20:03.298Z,407.00
2022-11-27T01:20:33.460Z,402.00
2022-11-27T01:21:03.447Z,402.00
2022-11-27T01:21:33.486Z,402.00
2022-11-27T01:22:03.487Z,401.00
2022-11-27T01:22:33.477Z,403.00
2022-11-27T01:23:03.496Z,403.00
2022-11-27T01:23:33.510Z,404.00
2022-11-27T01:24:03.574Z,401.00
2022-11-27T01:24:33.547Z,403.00
2022-11-27T01:25:03.625Z,401.00
2022-11-27T01:25:33.755Z,403.00
2022-11-27T01:26:03.710Z,405.00
2022-11-27T01:26:33.819Z,405.00
2022-11-27T01:27:03.788Z,403.00
2022-11-27T01:27:33.877Z,407.00
2022-11-27T01:28:03.952Z,408.00
2022-11-27T01:28:34.034Z,407.00
2022-11-27T01:29:04.154Z,407.00
2022-11-27T01:29:34.124Z,405.00
2022-11-27T01:30:04.197Z,405.00
2022-11-27T01:30:34.265Z,405.00
2022-11-27T01:31:04.375Z,404.00
2022-11-27T01:31:34.505Z,404.00
2022-11-27T01:32:04.390Z,405.00
2022-11-27T01:32:34.469Z,405.00
2022-11-27T01:33:04.568Z,404.00
2022-11-27T01:33:34.681Z,404.00
2022-11-27T01:34:04.754Z,402.00
2022-11-27T01:34:34.778Z,400.00
2022-11-27T01:35:04.806Z,401.00
2022-11-27T01:35:34.803Z,400.00
2022-11-27T01:36:04.795Z,399.00
2022-11-27T01:36:34.997Z,401.00
2022-11-27T01:37:05.025Z,402.00
2022-11-27T01:37:35.035Z,403.00
2022-11-27T01:38:05.037Z,401.00
2022-11-27T01:38:35.178Z,402.00
2022-11-27T01:39:05.215Z,402.00
2022-11-27T01:39:35.243Z,399.00
2022-11-27T01:40:05.230Z,398.00
2022-11-27T01:40:35.224Z,401.00
2022-11-27T01:41:05.244Z,401.00
2022-11-27T01:41:35.274Z,403.00
2022-11-27T01:42:05.258Z,403.00
2022-11-27T01:42:35.312Z,402.00
2022-11-27T01:43:05.297Z,401.00
2022-11-27T01:43:35.361Z,401.00
2022-11-27T01:44:05.453Z,402.00
2022-11-27T01:44:35.465Z,402.00
2022-11-27T01:45:05.481Z,402.00
2022-11-27T01:45:35.472Z,402.00
2022-11-27T01:46:05.529Z,401.00
2022-11-27T01:46:35.681Z,400.00
2022-11-27T01:47:05.587Z,400.00
2022-11-27T01:47:35.588Z,401.00
2022-11-27T01:48:05.697Z,402.00
2022-11-27T01:48:35.871Z,403.00
2022-11-27T01:49:05.982Z,404.00
2022-11-27T01:49:35.909Z,405.00
2022-11-27T01:50:05.927Z,403.00
2022-11-27T01:50:35.938Z,401.00
2022-11-27T01:51:05.917Z,402.00
2022-11-27T01:51:35.935Z,401.00
2022-11-27T01:52:05.941Z,401.00
2022-11-27T01:52:36.064Z,401.00
2022-11-27T01:53:06.100Z,403.00
2022-11-27T01:53:36.093Z,405.00
2022-11-27T01:54:06.106Z,403.00
2022-11-27T01:54:36.134Z,405.00
2022-11-27T01:55:06.122Z,404.00
2022-11-27T01:55:36.140Z,405.00
2022-11-27T01:56:06.144Z,404.00
2022-11-27T01:56:36.134Z,404.00
2022-11-27T01:57:06.311Z,404.00
2022-11-27T01:57:36.297Z,402.00
2022-11-27T01:58:06.313Z,403.00
2022-11-27T01:58:36.315Z,404.00
2022-11-27T01:59:06.342Z,401.00
2022-11-27T01:59:36.342Z,402.00
2022-11-27T02:00:06.408Z,398.00
2022-11-27T02:00:36.390Z,400.00
2022-11-27T02:01:06.395Z,400.00
2022-11-27T02:01:36.497Z,400.00
2022-11-27T02:02:06.580Z,398.00
2022-11-27T02:02:36.543Z,399.00
2022-11-27T02:03:06.695Z,401.00
2022-11-27T02:03:36.600Z,403.00
2022-11-27T02:04:06.615Z,402.00
2022-11-27T02:04:36.596Z,401.00
2022-11-27T02:05:06.727Z,402.00
2022-11-27T02:05:36.721Z,403.00
2022-11-27T02:06:06.843Z,403.00
2022-11-27T02:06:36.841Z,402.00
2022-11-27T02:07:06.852Z,401.00
2022-11-27T02:07:36.923Z,400.00
2022-11-27T02:08:06.940Z,400.00
2022-11-27T02:08:36.944Z,399.00
2022-11-27T02:09:06.950Z,400.00
2022-11-27T02:09:36.940Z,400.00
2022-11-27T02:10:06.964Z,401.00
2022-11-27T02:10:36.988Z,401.00
2022-11-27T02:11:06.977Z,402.00
2022-11-27T02:11:36.981Z,402.00
2022-11-27T02:12:07.003Z,401.00
2022-11-27T02:12:37.000Z,402.00
2022-11-27T02:13:07.122Z,402.00
2022-11-27T02:13:37.111Z,403.00
2022-11-27T02:14:07.301Z,402.00
2022-11-27T02:14:37.667Z,400.00
2022-11-27T02:15:07.282Z,400.00
2022-11-27T02:15:37.349Z,401.00
2022-11-27T02:16:07.402Z,401.00
2022-11-27T02:16:37.365Z,399.00
2022-11-27T02:17:07.419Z,399.00
2022-11-27T02:17:37.459Z,399.00
2022-11-27T02:18:07.439Z,401.00
2022-11-27T02:18:37.441Z,399.00
2022-11-27T02:19:07.454Z,399.00
2022-11-27T02:19:37.451Z,398.00
2022-11-27T02:20:07.452Z,398.00
2022-11-27T02:20:37.568Z,399.00
2022-11-27T02:21:07.584Z,401.00
2022-11-27T02:21:37.585Z,403.00
2022-11-27T02:22:07.586Z,404.00
2022-11-27T02:22:37.597Z,404.00
2022-11-27T02:23:07.621Z,401.00
2022-11-27T02:23:37.669Z,402.00
2022-11-27T02:24:07.703Z,401.00
2022-11-27T02:24:38.130Z,398.00
2022-11-27T02:25:07.889Z,396.00
2022-11-27T02:25:38.150Z,398.00
2022-11-27T02:26:07.979Z,399.00
2022-11-27T02:26:38.055Z,402.00
2022-11-27T02:27:08.159Z,401.00
2022-11-27T02:27:38.279Z,403.00
2022-11-27T02:28:08.339Z,403.00
2022-11-27T02:28:38.449Z,403.00
2022-11-27T02:29:08.521Z,404.00
2022-11-27T02:29:38.631Z,403.00
2022-11-27T02:30:08.618Z,401.00
2022-11-27T02:30:38.698Z,401.00
2022-11-27T02:31:08.854Z,400.00
2022-11-27T02:31:38.928Z,399.00
2022-11-27T02:32:08.949Z,399.00
2022-11-27T02:32:39.016Z,399.00
2022-11-27T02:33:09.112Z,398.00
2022-11-27T02:33:39.189Z,397.00
2022-11-27T02:34:09.295Z,397.00
2022-11-27T02:34:39.644Z,397.00
2022-11-27T02:35:09.484Z,398.00
2022-11-27T02:35:39.511Z,398.00
2022-11-27T02:36:09.499Z,400.00
2022-11-27T02:36:39.506Z,402.00
2022-11-27T02:37:09.542Z,402.00
2022-11-27T02:37:39.556Z,402.00
2022-11-27T02:38:09.552Z,401.00
2022-11-27T02:38:39.707Z,402.00
2022-11-27T02:39:09.712Z,403.00
2022-11-27T02:39:39.706Z,404.00
2022-11-27T02:40:09.724Z,404.00
2022-11-27T02:40:39.712Z,405.00
2022-11-27T02:41:09.745Z,403.00
2022-11-27T02:41:39.730Z,404.00
2022-11-27T02:42:09.860Z,405.00
2022-11-27T02:42:39.823Z,406.00
2022-11-27T02:43:09.837Z,404.00
2022-11-27T02:43:39.841Z,403.00
2022-11-27T02:44:09.854Z,404.00
2022-11-27T02:44:40.114Z,406.00
2022-11-27T02:45:09.924Z,407.00
2022-11-27T02:45:40.035Z,408.00
2022-11-27T02:46:10.104Z,408.00
2022-11-27T02:46:40.190Z,408.00
2022-11-27T02:47:10.132Z,409.00
2022-11-27T02:47:40.136Z,408.00
2022-11-27T02:48:10.195Z,407.00
2022-11-27T02:48:40.225Z,404.00
2022-11-27T02:49:10.228Z,402.00
2022-11-27T02:49:40.221Z,402.00
2022-11-27T02:50:10.235Z,402.00
2022-11-27T02:50:40.331Z,403.00
2022-11-27T02:51:10.330Z,403.00
2022-11-27T02:51:40.323Z,401.00
2022-11-27T02:52:10.445Z,399.00
2022-11-27T02:52:40.448Z,398.00
2022-11-27T02:53:10.467Z,396.00
2022-11-27T02:53:40.486Z,399.00
2022-11-27T02:54:10.535Z,399.00
2022-11-27T02:54:40.777Z,399.00
2022-11-27T02:55:10.651Z,396.00
2022-11-27T02:55:40.786Z,396.00
2022-11-27T02:56:10.793Z,394.00
2022-11-27T02:56:40.830Z,394.00
2022-11-27T02:57:10.848Z,397.00
2022-11-27T02:57:40.939Z,400.00
2022-11-27T02:58:10.931Z,400.00
2022-11-27T02:58:40.920Z,399.00
2022-11-27T02:59:10.926Z,399.00
2022-11-27T02:59:40.957Z,400.00
2022-11-27T03:00:11.010Z,400.00
2022-11-27T03:00:41.015Z,400.00
2022-11-27T03:01:11.018Z,401.00
2022-11-27T03:01:41.150Z,402.00
2022-11-27T03:02:11.180Z,402.00
2022-11-27T03:02:41.232Z,401.00
2022-11-27T03:03:11.335Z,400.00
2022-11-27T03:03:41.244Z,400.00
2022-11-27T03:04:11.247Z,400.00
2022-11-27T03:04:41.483Z,400.00
2022-11-27T03:05:11.272Z,400.00
2022-11-27T03:05:41.381Z,400.00
2022-11-27T03:06:11.382Z,400.00
2022-11-27T03:06:41.389Z,398.00
2022-11-27T03:07:11.412Z,398.00
2022-11-27T03:07:41.465Z,397.00
2022-11-27T03:08:11.483Z,396.00
2022-11-27T03:08:41.475Z,398.00
2022-11-27T03:09:11.593Z,396.00
2022-11-27T03:09:41.586Z,397.00
2022-11-27T03:10:11.727Z,398.00
2022-11-27T03:10:41.729Z,398.00
2022-11-27T03:11:11.744Z,397.00
2022-11-27T03:11:41.859Z,397.00
2022-11-27T03:12:11.894Z,397.00
2022-11-27T03:12:41.945Z,399.00
2022-11-27T03:13:12.069Z,398.00
2022-11-27T03:13:41.943Z,400.00
2022-11-27T03:14:11.935Z,398.00
2022-11-27T03:14:42.280Z,400.00
2022-11-27T03:15:12.132Z,401.00
2022-11-27T03:15:42.216Z,400.00
2022-11-27T03:16:12.284Z,399.00
2022-11-27T03:16:42.289Z,398.00
2022-11-27T03:17:12.320Z,398.00
2022-11-27T03:17:42.326Z,399.00
2022-11-27T03:18:12.342Z,398.00
2022-11-27T03:18:42.327Z,398.00
2022-11-27T03:19:12.448Z,398.00
2022-11-27T03:19:42.451Z,399.00
2022-11-27T03:20:12.467Z,398.00
2022-11-27T03:20:42.531Z,396.00
2022-11-27T03:21:12.554Z,399.00
2022-11-27T03:21:42.588Z,398.00
2022-11-27T03:22:12.625Z,397.00
2022-11-27T03:22:42.611Z,397.00
2022-11-27T03:23:12.719Z,396.00
2022-11-27T03:23:42.732Z,398.00
2022-11-27T03:24:12.853Z,397.00
2022-11-27T03:24:43.309Z,397.00
2022-11-27T03:25:13.004Z,395.00
2022-11-27T03:25:43.092Z,397.00
2022-11-27T03:26:13.214Z,398.00
2022-11-27T03:26:43.230Z,399.00
2022-11-27T03:27:13.326Z,399.00
2022-11-27T03:27:43.423Z,400.00
2022-11-27T03:28:18.758Z,402.00
2022-11-27T03:28:43.725Z,401.00
2022-11-27T03:29:13.661Z,399.00
2022-11-27T03:29:43.783Z,400.00
2022-11-27T03:30:13.861Z,401.00
2022-11-27T03:30:44.005Z,403.00
2022-11-27T03:31:14.086Z,404.00
2022-11-27T03:31:44.241Z,402.00
2022-11-27T03:32:14.186Z,401.00
2022-11-27T03:32:44.125Z,402.00
2022-11-27T03:33:14.241Z,400.00
2022-11-27T03:33:44.326Z,401.00
2022-11-27T03:34:14.438Z,399.00
2022-11-27T03:34:44.447Z,399.00
2022-11-27T03:35:14.460Z,399.00
2022-11-27T03:35:44.471Z,401.00
2022-11-27T03:36:14.594Z,400.00
2022-11-27T03:36:44.600Z,400.00
2022-11-27T03:37:14.746Z,399.00
2022-11-27T03:37:44.773Z,397.00
2022-11-27T03:38:14.854Z,398.00
2022-11-27T03:38:44.955Z,398.00
2022-11-27T03:39:14.993Z,399.00
2022-11-27T03:39:44.996Z,399.00
2022-11-27T03:40:15.161Z,398.00
2022-11-27T03:40:45.097Z,396.00
2022-11-27T03:41:15.112Z,397.00
2022-11-27T03:41:45.160Z,399.00
2022-11-27T03:42:15.159Z,401.00
2022-11-27T03:42:45.206Z,401.00
2022-11-27T03:43:15.429Z,402.00
2022-11-27T03:43:45.298Z,403.00
2022-11-27T03:44:15.424Z,402.00
2022-11-27T03:44:45.398Z,401.00
2022-11-27T03:45:15.449Z,402.00
2022-11-27T03:45:45.504Z,403.00
2022-11-27T03:46:15.572Z,402.00
2022-11-27T03:46:45.721Z,401.00
2022-11-27T03:47:15.830Z,401.00
2022-11-27T03:47:45.891Z,399.00
2022-11-27T03:48:15.818Z,400.00
2022-11-27T03:48:45.801Z,400.00
2022-11-27T03:49:15.956Z,399.00
2022-11-27T03:49:45.936Z,398.00
2022-11-27T03:50:15.991Z,396.00
2022-11-27T03:50:46.166Z,396.00
2022-11-27T03:51:16.044Z,392.00
2022-11-27T03:51:46.042Z,391.00
2022-11-27T03:52:16.103Z,388.00
2022-11-27T03:52:46.105Z,388.00
2022-11-27T03:53:16.109Z,388.00
2022-11-27T03:53:46.186Z,388.00
2022-11-27T03:54:16.212Z,389.00
2022-11-27T03:54:46.220Z,388.00
2022-11-27T03:55:16.242Z,387.00
2022-11-27T03:55:46.231Z,387.00
2022-11-27T03:56:16.379Z,387.00
2022-11-27T03:56:46.372Z,387.00
2022-11-27T03:57:16.412Z,389.00
2022-11-27T03:57:46.423Z,393.00
2022-11-27T03:58:16.431Z,393.00
2022-11-27T03:58:46.432Z,393.00
2022-11-27T03:59:16.433Z,394.00
2022-11-27T03:59:46.554Z,395.00
2022-11-27T04:00:16.515Z,394.00
2022-11-27T04:00:46.658Z,394.00
2022-11-27T04:01:16.772Z,394.00
2022-11-27T04:01:47.041Z,394.00
2022-11-27T04:02:16.922Z,396.00
2022-11-27T04:02:46.809Z,396.00
2022-11-27T04:03:16.936Z,396.00
2022-11-27T04:03:47.003Z,397.00
2022-11-27T04:04:17.113Z,398.00
2022-11-27T04:04:47.174Z,399.00
2022-11-27T04:05:17.226Z,399.00
2022-11-27T04:05:47.148Z,400.00
2022-11-27T04:06:17.306Z,399.00
2022-11-27T04:06:47.327Z,397.00
2022-11-27T04:07:17.517Z,397.00
2022-11-27T04:07:47.466Z,396.00
2022-11-27T04:08:17.481Z,397.00
2022-11-27T04:08:47.767Z,398.00
2022-11-27T04:09:17.744Z,399.00
2022-11-27T04:09:47.621Z,399.00
2022-11-27T04:10:17.721Z,399.00
2022-11-27T04:10:47.714Z,401.00
2022-11-27T04:11:17.734Z,401.00
2022-11-27T04:11:47.756Z,399.00
2022-11-27T04:12:17.805Z,401.00
2022-11-27T04:12:47.798Z,401.00
2022-11-27T04:13:17.805Z,401.00
2022-11-27T04:13:47.825Z,401.00
2022-11-27T04:14:17.841Z,402.00
2022-11-27T04:14:47.875Z,403.00
2022-11-27T04:15:17.996Z,403.00
2022-11-27T04:15:48.029Z,404.00
2022-11-27T04:16:18.166Z,403.00
2022-11-27T04:16:48.038Z,404.00
2022-11-27T04:17:18.069Z,401.00
2022-11-27T04:17:48.100Z,402.00
2022-11-27T04:18:18.082Z,399.00
2022-11-27T04:18:48.077Z,400.00
2022-11-27T04:19:18.277Z,398.00
2022-11-27T04:19:48.253Z,398.00
2022-11-27T04:20:18.299Z,397.00
2022-11-27T04:20:48.261Z,397.00
2022-11-27T04:21:18.280Z,397.00
2022-11-27T04:21:48.280Z,396.00
2022-11-27T04:22:18.286Z,394.00
2022-11-27T04:22:48.288Z,396.00
2022-11-27T04:23:18.280Z,396.00
2022-11-27T04:23:48.401Z,397.00
2022-11-27T04:24:18.530Z,396.00
2022-11-27T04:24:48.607Z,396.00
2022-11-27T04:25:18.742Z,396.00
2022-11-27T04:25:48.802Z,395.00
2022-11-27T04:26:19.093Z,396.00
2022-11-27T04:26:48.952Z,394.00
2022-11-27T04:27:18.935Z,393.00
2022-11-27T04:27:56.199Z,392.00
2022-11-27T04:28:19.122Z,394.00
2022-11-27T04:28:49.201Z,393.00
2022-11-27T04:29:19.312Z,393.00
2022-11-27T04:29:49.402Z,391.00
2022-11-27T04:30:19.513Z,392.00
2022-11-27T04:30:49.693Z,389.00
2022-11-27T04:31:19.671Z,388.00
2022-11-27T04:31:49.666Z,388.00
2022-11-27T04:32:19.661Z,390.00
2022-11-27T04:32:49.742Z,389.00
2022-11-27T04:33:19.854Z,390.00
2022-11-27T04:33:49.938Z,389.00
2022-11-27T04:34:20.026Z,388.00
2022-11-27T04:34:50.016Z,388.00
2022-11-27T04:35:20.155Z,390.00
2022-11-27T04:35:50.147Z,389.00
2022-11-27T04:36:20.276Z,391.00
2022-11-27T04:36:50.369Z,391.00
2022-11-27T04:37:20.391Z,392.00
2022-11-27T04:37:50.401Z,392.00
2022-11-27T04:38:20.512Z,392.00
2022-11-27T04:38:50.524Z,390.00
2022-11-27T04:39:20.527Z,391.00
2022-11-27T04:39:50.528Z,391.00
2022-11-27T04:40:20.611Z,390.00
2022-11-27T04:40:50.541Z,391.00
2022-11-27T04:41:20.548Z,390.00
2022-11-27T04:41:50.555Z,391.00
2022-11-27T04:42:20.564Z,393.00
2022-11-27T04:42:50.707Z,392.00
2022-11-27T04:43:20.750Z,394.00
2022-11-27T04:43:50.750Z,395.00
2022-11-27T04:44:20.758Z,396.00
2022-11-27T04:44:50.869Z,395.00
2022-11-27T04:45:20.861Z,395.00
2022-11-27T04:45:50.974Z,394.00
2022-11-27T04:46:21.270Z,396.00
2022-11-27T04:46:51.173Z,394.00
2022-11-27T04:47:21.164Z,392.00
2022-11-27T04:47:51.183Z,393.00
2022-11-27T04:48:21.244Z,394.00
2022-11-27T04:48:51.298Z,392.00
2022-11-27T04:49:21.420Z,391.00
2022-11-27T04:49:51.522Z,394.00
2022-11-27T04:50:21.517Z,395.00
2022-11-27T04:50:51.624Z,395.00
2022-11-27T04:51:21.738Z,393.00
2022-11-27T04:51:51.736Z,392.00
2022-11-27T04:52:21.854Z,391.00
2022-11-27T04:52:51.935Z,390.00
2022-11-27T04:53:21.936Z,390.00
2022-11-27T04:53:51.929Z,388.00
2022-11-27T04:54:21.940Z,387.00
2022-11-27T04:54:56.795Z,389.00
2022-11-27T04:55:21.961Z,389.00
2022-11-27T04:55:52.001Z,390.00
2022-11-27T04:56:21.987Z,391.00
2022-11-27T04:56:52.005Z,391.00
2022-11-27T04:57:22.061Z,391.00
2022-11-27T04:57:52.082Z,392.00
2022-11-27T04:58:22.099Z,394.00
2022-11-27T04:58:52.102Z,393.00
2022-11-27T04:59:22.135Z,392.00
2022-11-27T04:59:52.143Z,391.00
2022-11-27T05:00:22.123Z,390.00
2022-11-27T05:00:52.298Z,391.00
2022-11-27T05:01:22.388Z,392.00
2022-11-27T05:01:52.411Z,390.00
2022-11-27T05:02:22.459Z,392.00
2022-11-27T05:02:52.535Z,395.00
2022-11-27T05:03:22.659Z,396.00
2022-11-27T05:03:52.732Z,397.00
2022-11-27T05:04:22.716Z,399.00
2022-11-27T05:04:52.738Z,399.00
2022-11-27T05:05:22.746Z,399.00
2022-11-27T05:05:52.748Z,399.00
2022-11-27T05:06:22.775Z,399.00
2022-11-27T05:06:52.771Z,399.00
2022-11-27T05:07:22.833Z,396.00
2022-11-27T05:07:52.886Z,396.00
2022-11-27T05:08:22.870Z,396.00
2022-11-27T05:08:52.880Z,397.00
2022-11-27T05:09:22.890Z,395.00
2022-11-27T05:09:52.908Z,396.00
2022-11-27T05:10:22.904Z,397.00
2022-11-27T05:10:52.905Z,396.00
2022-11-27T05:11:22.914Z,395.00
2022-11-27T05:11:52.900Z,396.00
2022-11-27T05:12:22.913Z,396.00
2022-11-27T05:12:52.937Z,396.00
2022-11-27T05:13:22.951Z,397.00
2022-11-27T05:13:52.951Z,398.00
2022-11-27T05:14:22.947Z,400.00
2022-11-27T05:14:52.941Z,399.00
2022-11-27T05:15:22.941Z,400.00
2022-11-27T05:15:53.018Z,398.00
2022-11-27T05:16:23.099Z,395.00
2022-11-27T05:16:53.173Z,394.00
2022-11-27T05:17:23.282Z,393.00
2022-11-27T05:17:53.277Z,392.00
2022-11-27T05:18:23.279Z,393.00
2022-11-27T05:18:53.269Z,394.00
2022-11-27T05:19:23.265Z,393.00
2022-11-27T05:19:53.398Z,394.00
2022-11-27T05:20:23.397Z,393.00
2022-11-27T05:20:53.456Z,392.00
2022-11-27T05:21:23.481Z,394.00
2022-11-27T05:21:53.482Z,396.00
2022-11-27T05:22:23.501Z,397.00
2022-11-27T05:22:53.528Z,395.00
2022-11-27T05:23:23.521Z,396.00
2022-11-27T05:23:53.524Z,394.00
2022-11-27T05:24:23.610Z,395.00
2022-11-27T05:24:53.701Z,394.00
2022-11-27T05:25:23.779Z,395.00
2022-11-27T05:25:53.865Z,393.00
2022-11-27T05:26:23.966Z,392.00
2022-11-27T05:26:54.046Z,393.00
2022-11-27T05:27:24.155Z,393.00
2022-11-27T05:27:54.239Z,392.00
2022-11-27T05:28:26.785Z,393.00
2022-11-27T05:28:54.337Z,392.00
2022-11-27T05:29:24.462Z,392.00
2022-11-27T05:29:54.554Z,393.00
2022-11-27T05:30:24.623Z,394.00
2022-11-27T05:30:54.794Z,392.00
2022-11-27T05:31:24.856Z,392.00
2022-11-27T05:31:54.894Z,392.00
2022-11-27T05:32:24.876Z,391.00
2022-11-27T05:32:55.082Z,393.00
2022-11-27T05:33:25.006Z,394.00
2022-11-27T05:33:55.102Z,391.00
2022-11-27T05:34:25.151Z,390.00
2022-11-27T05:34:55.176Z,390.00
2022-11-27T05:35:25.190Z,388.00
2022-11-27T05:35:55.188Z,388.00
2022-11-27T05:36:25.174Z,386.00
2022-11-27T05:36:55.180Z,388.00
2022-11-27T05:37:25.286Z,391.00
2022-11-27T05:37:55.326Z,391.00
2022-11-27T05:38:25.328Z,391.00
2022-11-27T05:38:55.335Z,394.00
2022-11-27T05:39:25.345Z,394.00
2022-11-27T05:39:55.344Z,395.00
2022-11-27T05:40:25.472Z,394.00
2022-11-27T05:40:55.476Z,395.00
2022-11-27T05:41:25.481Z,392.00
2022-11-27T05:41:55.523Z,393.00
2022-11-27T05:42:25.515Z,393.00
2022-11-27T05:42:55.574Z,394.00
2022-11-27T05:43:25.569Z,393.00
2022-11-27T05:43:55.579Z,394.00
2022-11-27T05:44:25.579Z,396.00
2022-11-27T05:44:58.424Z,395.00
2022-11-27T05:45:25.696Z,394.00
2022-11-27T05:45:55.684Z,394.00
2022-11-27T05:46:25.704Z,395.00
2022-11-27T05:46:55.728Z,396.00
2022-11-27T05:47:25.747Z,396.00
2022-11-27T05:47:55.809Z,397.00
2022-11-27T05:48:25.929Z,396.00
2022-11-27T05:48:55.885Z,395.00
2022-11-27T05:49:25.899Z,394.00
2022-11-27T05:49:55.896Z,392.00
2022-11-27T05:50:25.903Z,390.00
2022-11-27T05:50:56.029Z,388.00
2022-11-27T05:51:26.139Z,389.00
2022-11-27T05:51:56.140Z,391.00
2022-11-27T05:52:26.144Z,392.00
2022-11-27T05:52:56.158Z,393.00
2022-11-27T05:53:26.157Z,393.00
2022-11-27T05:53:56.270Z,392.00
2022-11-27T05:54:26.268Z,392.00
2022-11-27T05:54:56.322Z,391.00
2022-11-27T05:55:26.313Z,390.00
2022-11-27T05:55:56.436Z,390.00
2022-11-27T05:56:26.566Z,390.00
2022-11-27T05:56:56.606Z,389.00
2022-11-27T05:57:26.613Z,385.00
2022-11-27T05:57:56.737Z,386.00
2022-11-27T05:58:26.860Z,387.00
2022-11-27T05:58:56.854Z,386.00
2022-11-27T05:59:26.966Z,388.00
2022-11-27T05:59:57.116Z,391.00
2022-11-27T06:00:27.133Z,391.00
2022-11-27T06:00:57.142Z,393.00
2022-11-27T06:01:27.142Z,395.00
2022-11-27T06:01:57.213Z,393.00
2022-11-27T06:02:29.527Z,392.00
2022-11-27T06:02:57.364Z,392.00
2022-11-27T06:03:27.410Z,394.00
2022-11-27T06:03:57.590Z,394.00
2022-11-27T06:04:27.582Z,393.00
2022-11-27T06:04:57.615Z,393.00
2022-11-27T06:05:27.618Z,391.00
2022-11-27T06:05:57.726Z,389.00
2022-11-27T06:06:27.734Z,386.00
2022-11-27T06:06:57.743Z,384.00
2022-11-27T06:07:27.799Z,385.00
2022-11-27T06:07:57.896Z,387.00
2022-11-27T06:08:27.888Z,385.00
2022-11-27T06:08:57.883Z,387.00
2022-11-27T06:09:27.878Z,388.00
2022-11-27T06:09:58.004Z,388.00
2022-11-27T06:10:28.017Z,388.00
2022-11-27T06:10:58.035Z,390.00
2022-11-27T06:11:28.052Z,390.00
2022-11-27T06:11:58.079Z,391.00
2022-11-27T06:12:28.124Z,390.00
2022-11-27T06:12:58.128Z,391.00
2022-11-27T06:13:28.158Z,392.00
2022-11-27T06:13:58.254Z,392.00
2022-11-27T06:14:28.146Z,391.00
2022-11-27T06:14:58.261Z,392.00